New Orleans, Louisiana
Traffic Map
Current Weather Conditions
New Orleans, Louisiana
Few Clouds
Few Clouds
97°
Feels Like: 103°
Wind Chill: 97° Ceiling: Unl
Heat Index: 103° Visibility: 10mi
Dew Point: 70° Wind: 6mph
Humidity: 41% Direction: 20° (NNE)
Pressure: 29.98in Gusts: 0mph
Raw Report DataKVSH 231955Z AUTO 02005KT 10SM FEW047 36/21 A2998 RMK AO1
Traffic Incident Summary
Active as of:
Severity:
Category:
InformationThere was an issue retrieving the traffic information for this location. Please try a different location or try again shortly.
Advertisements
Track Severe Weather on mobile